sensor_id;sensor_type;location;lat;lon;timestamp;temperature;humidity
19522;DHT22;9905;52.126;5.596;2023-10-09T00:00:34;14.00;99.90
19522;DHT22;9905;52.126;5.596;2023-10-09T00:03:21;13.90;99.90
19522;DHT22;9905;52.126;5.596;2023-10-09T00:05:49;13.90;99.90
19522;DHT22;9905;52.126;5.596;2023-10-09T00:08:19;14.00;99.90
19522;DHT22;9905;52.126;5.596;2023-10-09T00:10:48;14.00;99.90
19522;DHT22;9905;52.126;5.596;2023-10-09T00:13:20;14.00;99.90
19522;DHT22;9905;52.126;5.596;2023-10-09T00:15:52;14.00;99.90
19522;DHT22;9905;52.126;5.596;2023-10-09T00:18:24;13.90;99.90
19522;DHT22;9905;52.126;5.596;2023-10-09T00:20:55;13.90;99.90
19522;DHT22;9905;52.126;5.596;2023-10-09T00:23:26;14.00;99.90
19522;DHT22;9905;52.126;5.596;2023-10-09T00:25:53;14.00;99.90
19522;DHT22;9905;52.126;5.596;2023-10-09T00:28:36;14.00;99.90
19522;DHT22;9905;52.126;5.596;2023-10-09T00:31:03;14.00;99.90
19522;DHT22;9905;52.126;5.596;2023-10-09T00:33:32;14.00;99.90
19522;DHT22;9905;52.126;5.596;2023-10-09T00:36:02;14.00;99.90
19522;DHT22;9905;52.126;5.596;2023-10-09T00:38:34;14.00;99.90
19522;DHT22;9905;52.126;5.596;2023-10-09T00:41:04;14.10;99.90
19522;DHT22;9905;52.126;5.596;2023-10-09T00:43:38;14.10;99.90
19522;DHT22;9905;52.126;5.596;2023-10-09T00:46:09;14.10;99.90
19522;DHT22;9905;52.126;5.596;2023-10-09T00:48:51;14.10;99.90
19522;DHT22;9905;52.126;5.596;2023-10-09T00:51:19;14.10;99.90
19522;DHT22;9905;52.126;5.596;2023-10-09T00:53:51;14.10;99.90
19522;DHT22;9905;52.126;5.596;2023-10-09T00:56:19;14.10;99.90
19522;DHT22;9905;52.126;5.596;2023-10-09T00:58:56;14.10;99.90
19522;DHT22;9905;52.126;5.596;2023-10-09T01:01:39;14.20;99.90
19522;DHT22;9905;52.126;5.596;2023-10-09T01:04:07;14.20;99.90
19522;DHT22;9905;52.126;5.596;2023-10-09T01:06:36;14.20;99.90
19522;DHT22;9905;52.126;5.596;2023-10-09T01:09:09;14.20;99.90
19522;DHT22;9905;52.126;5.596;2023-10-09T01:11:37;14.30;99.90
19522;DHT22;9905;52.126;5.596;2023-10-09T01:14:15;14.30;99.90
19522;DHT22;9905;52.126;5.596;2023-10-09T01:16:42;14.30;99.90
19522;DHT22;9905;52.126;5.596;2023-10-09T01:19:10;14.40;99.90
19522;DHT22;9905;52.126;5.596;2023-10-09T01:21:46;14.40;99.90
19522;DHT22;9905;52.126;5.596;2023-10-09T01:24:14;14.50;99.90
19522;DHT22;9905;52.126;5.596;2023-10-09T01:26:42;14.50;99.90
19522;DHT22;9905;52.126;5.596;2023-10-09T01:29:12;14.50;99.90
19522;DHT22;9905;52.126;5.596;2023-10-09T01:31:42;14.60;99.90
19522;DHT22;9905;52.126;5.596;2023-10-09T01:34:16;14.60;99.90
19522;DHT22;9905;52.126;5.596;2023-10-09T01:36:44;14.70;99.90
19522;DHT22;9905;52.126;5.596;2023-10-09T01:39:15;14.70;99.90
19522;DHT22;9905;52.126;5.596;2023-10-09T01:41:49;14.70;99.90
19522;DHT22;9905;52.126;5.596;2023-10-09T01:44:23;14.70;99.90
19522;DHT22;9905;52.126;5.596;2023-10-09T01:46:51;14.70;99.90
19522;DHT22;9905;52.126;5.596;2023-10-09T01:49:20;14.70;99.90
19522;DHT22;9905;52.126;5.596;2023-10-09T01:51:55;14.80;99.90
19522;DHT22;9905;52.126;5.596;2023-10-09T01:54:26;14.80;99.90
19522;DHT22;9905;52.126;5.596;2023-10-09T01:57:04;14.80;99.90
19522;DHT22;9905;52.126;5.596;2023-10-09T01:59:35;14.70;99.90
19522;DHT22;9905;52.126;5.596;2023-10-09T02:02:04;14.80;99.90
19522;DHT22;9905;52.126;5.596;2023-10-09T02:04:38;14.80;99.90
19522;DHT22;9905;52.126;5.596;2023-10-09T02:07:06;14.80;99.90
19522;DHT22;9905;52.126;5.596;2023-10-09T02:09:35;14.80;99.90
19522;DHT22;9905;52.126;5.596;2023-10-09T02:12:10;14.80;99.90
19522;DHT22;9905;52.126;5.596;2023-10-09T02:14:38;14.80;99.90
19522;DHT22;9905;52.126;5.596;2023-10-09T02:17:07;14.80;99.90
19522;DHT22;9905;52.126;5.596;2023-10-09T02:19:35;14.80;99.90
19522;DHT22;9905;52.126;5.596;2023-10-09T02:22:03;14.80;99.90
19522;DHT22;9905;52.126;5.596;2023-10-09T02:24:40;14.80;99.90
19522;DHT22;9905;52.126;5.596;2023-10-09T02:27:17;14.80;99.90
19522;DHT22;9905;52.126;5.596;2023-10-09T02:30:03;14.80;99.90
19522;DHT22;9905;52.126;5.596;2023-10-09T02:32:44;14.80;99.90
19522;DHT22;9905;52.126;5.596;2023-10-09T02:35:14;14.80;99.90
19522;DHT22;9905;52.126;5.596;2023-10-09T02:37:53;14.70;99.90
19522;DHT22;9905;52.126;5.596;2023-10-09T02:40:21;14.70;99.90
19522;DHT22;9905;52.126;5.596;2023-10-09T02:42:53;14.70;99.90
19522;DHT22;9905;52.126;5.596;2023-10-09T02:45:20;14.70;99.90
19522;DHT22;9905;52.126;5.596;2023-10-09T02:47:54;14.70;99.90
19522;DHT22;9905;52.126;5.596;2023-10-09T02:50:21;14.70;99.90
19522;DHT22;9905;52.126;5.596;2023-10-09T02:52:48;14.70;99.90
19522;DHT22;9905;52.126;5.596;2023-10-09T02:55:20;14.80;99.90
19522;DHT22;9905;52.126;5.596;2023-10-09T02:57:53;14.80;99.90
19522;DHT22;9905;52.126;5.596;2023-10-09T03:00:31;14.80;99.90
19522;DHT22;9905;52.126;5.596;2023-10-09T03:03:04;14.80;99.90
19522;DHT22;9905;52.126;5.596;2023-10-09T03:05:33;14.80;99.90
19522;DHT22;9905;52.126;5.596;2023-10-09T03:08:00;14.80;99.90
19522;DHT22;9905;52.126;5.596;2023-10-09T03:10:29;14.80;99.90
19522;DHT22;9905;52.126;5.596;2023-10-09T03:12:55;14.90;99.90
19522;DHT22;9905;52.126;5.596;2023-10-09T03:15:27;14.80;99.90
19522;DHT22;9905;52.126;5.596;2023-10-09T03:17:54;14.80;99.90
19522;DHT22;9905;52.126;5.596;2023-10-09T03:20:21;14.90;99.90
19522;DHT22;9905;52.126;5.596;2023-10-09T03:22:48;14.90;99.90
19522;DHT22;9905;52.126;5.596;2023-10-09T03:25:15;14.90;99.90
19522;DHT22;9905;52.126;5.596;2023-10-09T03:27:44;14.90;99.90
19522;DHT22;9905;52.126;5.596;2023-10-09T03:30:12;14.90;99.90
19522;DHT22;9905;52.126;5.596;2023-10-09T03:32:43;14.90;99.90
19522;DHT22;9905;52.126;5.596;2023-10-09T03:35:10;14.90;99.90
19522;DHT22;9905;52.126;5.596;2023-10-09T03:37:42;14.90;99.90
19522;DHT22;9905;52.126;5.596;2023-10-09T03:40:10;14.90;99.90
19522;DHT22;9905;52.126;5.596;2023-10-09T03:42:45;14.90;99.90
19522;DHT22;9905;52.126;5.596;2023-10-09T03:45:12;14.90;99.90
19522;DHT22;9905;52.126;5.596;2023-10-09T03:47:51;14.90;99.90
19522;DHT22;9905;52.126;5.596;2023-10-09T03:50:22;15.00;99.90
19522;DHT22;9905;52.126;5.596;2023-10-09T03:52:52;14.90;99.90
19522;DHT22;9905;52.126;5.596;2023-10-09T03:55:20;15.00;99.90
19522;DHT22;9905;52.126;5.596;2023-10-09T03:57:54;15.00;99.90
19522;DHT22;9905;52.126;5.596;2023-10-09T04:00:23;15.00;99.90
19522;DHT22;9905;52.126;5.596;2023-10-09T04:02:54;15.00;99.90
19522;DHT22;9905;52.126;5.596;2023-10-09T04:05:22;15.00;99.90
19522;DHT22;9905;52.126;5.596;2023-10-09T04:07:49;15.00;99.90
19522;DHT22;9905;52.126;5.596;2023-10-09T04:10:19;15.00;99.90
19522;DHT22;9905;52.126;5.596;2023-10-09T04:13:18;15.00;99.90
19522;DHT22;9905;52.126;5.596;2023-10-09T04:15:49;15.00;99.90
19522;DHT22;9905;52.126;5.596;2023-10-09T04:18:18;15.10;99.90
19522;DHT22;9905;52.126;5.596;2023-10-09T04:20:46;15.00;99.90
19522;DHT22;9905;52.126;5.596;2023-10-09T04:23:30;15.10;99.90
19522;DHT22;9905;52.126;5.596;2023-10-09T04:26:02;15.10;99.90
19522;DHT22;9905;52.126;5.596;2023-10-09T04:28:37;15.10;99.90
19522;DHT22;9905;52.126;5.596;2023-10-09T04:31:07;15.10;99.90
19522;DHT22;9905;52.126;5.596;2023-10-09T04:33:34;15.10;99.90
19522;DHT22;9905;52.126;5.596;2023-10-09T04:36:08;15.10;99.90
19522;DHT22;9905;52.126;5.596;2023-10-09T04:38:54;15.10;99.90
19522;DHT22;9905;52.126;5.596;2023-10-09T04:41:38;15.20;99.90
19522;DHT22;9905;52.126;5.596;2023-10-09T04:44:19;15.10;99.90
19522;DHT22;9905;52.126;5.596;2023-10-09T04:46:49;15.20;99.90
19522;DHT22;9905;52.126;5.596;2023-10-09T04:49:29;15.20;99.90
19522;DHT22;9905;52.126;5.596;2023-10-09T04:52:00;15.20;99.90
19522;DHT22;9905;52.126;5.596;2023-10-09T04:54:34;15.30;99.90
19522;DHT22;9905;52.126;5.596;2023-10-09T04:57:21;15.30;99.90
19522;DHT22;9905;52.126;5.596;2023-10-09T04:59:52;15.30;99.90
19522;DHT22;9905;52.126;5.596;2023-10-09T05:02:23;15.30;99.90
19522;DHT22;9905;52.126;5.596;2023-10-09T05:05:01;15.30;99.90
19522;DHT22;9905;52.126;5.596;2023-10-09T05:07:42;15.30;99.90
19522;DHT22;9905;52.126;5.596;2023-10-09T05:10:20;15.40;99.90
19522;DHT22;9905;52.126;5.596;2023-10-09T05:12:50;15.40;99.90
19522;DHT22;9905;52.126;5.596;2023-10-09T05:15:23;15.50;99.90
19522;DHT22;9905;52.126;5.596;2023-10-09T05:17:53;15.50;99.90
19522;DHT22;9905;52.126;5.596;2023-10-09T05:20:22;15.50;99.90
19522;DHT22;9905;52.126;5.596;2023-10-09T05:23:06;15.50;99.90
19522;DHT22;9905;52.126;5.596;2023-10-09T05:25:49;15.50;99.90
19522;DHT22;9905;52.126;5.596;2023-10-09T05:28:24;15.50;99.90
19522;DHT22;9905;52.126;5.596;2023-10-09T05:30:52;15.50;99.90
19522;DHT22;9905;52.126;5.596;2023-10-09T05:33:28;15.50;99.90
19522;DHT22;9905;52.126;5.596;2023-10-09T05:35:54;15.60;99.90
19522;DHT22;9905;52.126;5.596;2023-10-09T05:38:56;15.60;99.90
19522;DHT22;9905;52.126;5.596;2023-10-09T05:41:24;15.60;99.90
19522;DHT22;9905;52.126;5.596;2023-10-09T05:44:09;15.60;99.90
19522;DHT22;9905;52.126;5.596;2023-10-09T05:46:54;15.70;99.90
19522;DHT22;9905;52.126;5.596;2023-10-09T05:49:48;15.70;99.90
19522;DHT22;9905;52.126;5.596;2023-10-09T05:52:21;15.70;99.90
19522;DHT22;9905;52.126;5.596;2023-10-09T05:55:18;15.70;99.90
19522;DHT22;9905;52.126;5.596;2023-10-09T05:57:59;15.70;99.90
19522;DHT22;9905;52.126;5.596;2023-10-09T06:00:43;15.70;99.90
19522;DHT22;9905;52.126;5.596;2023-10-09T06:03:28;15.70;99.90
19522;DHT22;9905;52.126;5.596;2023-10-09T06:06:14;15.80;99.90
19522;DHT22;9905;52.126;5.596;2023-10-09T06:08:58;15.80;99.90
19522;DHT22;9905;52.126;5.596;2023-10-09T06:11:43;15.80;99.90
19522;DHT22;9905;52.126;5.596;2023-10-09T06:14:16;15.80;99.90
19522;DHT22;9905;52.126;5.596;2023-10-09T06:16:50;15.90;99.90
19522;DHT22;9905;52.126;5.596;2023-10-09T06:19:28;15.90;99.90
19522;DHT22;9905;52.126;5.596;2023-10-09T06:21:58;15.90;99.90
19522;DHT22;9905;52.126;5.596;2023-10-09T06:25:05;15.90;99.90
19522;DHT22;9905;52.126;5.596;2023-10-09T06:27:36;15.90;99.90
19522;DHT22;9905;52.126;5.596;2023-10-09T06:30:21;16.00;99.90
19522;DHT22;9905;52.126;5.596;2023-10-09T06:32:52;16.00;99.90
19522;DHT22;9905;52.126;5.596;2023-10-09T06:35:25;15.90;99.90
19522;DHT22;9905;52.126;5.596;2023-10-09T06:37:58;16.00;99.90
19522;DHT22;9905;52.126;5.596;2023-10-09T06:40:47;16.00;99.90
19522;DHT22;9905;52.126;5.596;2023-10-09T06:43:32;16.10;99.90
19522;DHT22;9905;52.126;5.596;2023-10-09T06:46:02;16.10;99.90
19522;DHT22;9905;52.126;5.596;2023-10-09T06:48:42;16.10;99.90
19522;DHT22;9905;52.126;5.596;2023-10-09T06:51:13;16.00;99.90
19522;DHT22;9905;52.126;5.596;2023-10-09T06:53:59;16.10;99.90
19522;DHT22;9905;52.126;5.596;2023-10-09T06:56:30;16.10;99.90
19522;DHT22;9905;52.126;5.596;2023-10-09T06:59:11;16.00;99.90
19522;DHT22;9905;52.126;5.596;2023-10-09T07:01:43;16.10;99.90
19522;DHT22;9905;52.126;5.596;2023-10-09T07:04:09;16.10;99.90
19522;DHT22;9905;52.126;5.596;2023-10-09T07:06:46;16.10;99.90
19522;DHT22;9905;52.126;5.596;2023-10-09T07:09:17;16.10;99.90
19522;DHT22;9905;52.126;5.596;2023-10-09T07:11:46;16.20;99.90
19522;DHT22;9905;52.126;5.596;2023-10-09T07:14:23;16.20;99.90
19522;DHT22;9905;52.126;5.596;2023-10-09T07:17:26;16.20;99.90
19522;DHT22;9905;52.126;5.596;2023-10-09T07:20:10;16.30;99.90
19522;DHT22;9905;52.126;5.596;2023-10-09T07:22:42;16.30;99.90
19522;DHT22;9905;52.126;5.596;2023-10-09T07:25:28;16.30;99.90
19522;DHT22;9905;52.126;5.596;2023-10-09T07:28:15;16.30;99.90
19522;DHT22;9905;52.126;5.596;2023-10-09T07:31:08;16.30;99.90
19522;DHT22;9905;52.126;5.596;2023-10-09T07:33:50;16.40;99.90
19522;DHT22;9905;52.126;5.596;2023-10-09T07:36:34;16.40;99.90
19522;DHT22;9905;52.126;5.596;2023-10-09T07:39:05;16.40;99.90
19522;DHT22;9905;52.126;5.596;2023-10-09T07:41:42;16.50;99.90
19522;DHT22;9905;52.126;5.596;2023-10-09T07:44:22;16.50;99.90
19522;DHT22;9905;52.126;5.596;2023-10-09T07:47:03;16.60;99.90
19522;DHT22;9905;52.126;5.596;2023-10-09T07:49:48;16.60;99.90
19522;DHT22;9905;52.126;5.596;2023-10-09T07:52:19;16.60;99.90
19522;DHT22;9905;52.126;5.596;2023-10-09T07:54:49;16.60;99.90
19522;DHT22;9905;52.126;5.596;2023-10-09T07:57:20;16.60;99.90
19522;DHT22;9905;52.126;5.596;2023-10-09T07:59:51;16.70;99.90
19522;DHT22;9905;52.126;5.596;2023-10-09T08:02:27;16.70;99.90
19522;DHT22;9905;52.126;5.596;2023-10-09T08:04:59;16.80;99.90
19522;DHT22;9905;52.126;5.596;2023-10-09T08:07:29;16.80;99.90
19522;DHT22;9905;52.126;5.596;2023-10-09T08:10:03;16.90;99.90
19522;DHT22;9905;52.126;5.596;2023-10-09T08:12:48;16.90;99.90
19522;DHT22;9905;52.126;5.596;2023-10-09T08:15:55;17.00;99.90
19522;DHT22;9905;52.126;5.596;2023-10-09T08:18:22;17.10;99.90
19522;DHT22;9905;52.126;5.596;2023-10-09T08:20:53;17.10;99.90
19522;DHT22;9905;52.126;5.596;2023-10-09T08:23:34;17.20;99.90
19522;DHT22;9905;52.126;5.596;2023-10-09T08:26:16;17.20;99.90
19522;DHT22;9905;52.126;5.596;2023-10-09T08:28:55;17.30;99.90
19522;DHT22;9905;52.126;5.596;2023-10-09T08:31:41;17.30;99.90
19522;DHT22;9905;52.126;5.596;2023-10-09T08:34:12;17.40;99.90
19522;DHT22;9905;52.126;5.596;2023-10-09T08:36:50;17.40;99.90
19522;DHT22;9905;52.126;5.596;2023-10-09T08:39:18;17.50;99.90
19522;DHT22;9905;52.126;5.596;2023-10-09T08:41:52;17.50;99.90
19522;DHT22;9905;52.126;5.596;2023-10-09T08:44:20;17.50;99.90
19522;DHT22;9905;52.126;5.596;2023-10-09T08:46:50;17.60;99.90
19522;DHT22;9905;52.126;5.596;2023-10-09T08:49:17;17.60;99.90
19522;DHT22;9905;52.126;5.596;2023-10-09T08:51:45;17.70;99.90
19522;DHT22;9905;52.126;5.596;2023-10-09T08:54:12;17.70;99.90
19522;DHT22;9905;52.126;5.596;2023-10-09T08:56:40;17.80;99.90
19522;DHT22;9905;52.126;5.596;2023-10-09T08:59:16;17.80;99.90
19522;DHT22;9905;52.126;5.596;2023-10-09T09:01:45;17.80;99.90
19522;DHT22;9905;52.126;5.596;2023-10-09T09:04:38;17.90;99.90
19522;DHT22;9905;52.126;5.596;2023-10-09T09:07:06;17.90;99.90
19522;DHT22;9905;52.126;5.596;2023-10-09T09:09:33;18.00;99.90
19522;DHT22;9905;52.126;5.596;2023-10-09T09:12:00;18.00;99.90
19522;DHT22;9905;52.126;5.596;2023-10-09T09:14:37;18.00;99.90
19522;DHT22;9905;52.126;5.596;2023-10-09T09:17:04;18.10;99.90
19522;DHT22;9905;52.126;5.596;2023-10-09T09:19:36;18.20;99.90
19522;DHT22;9905;52.126;5.596;2023-10-09T09:22:04;18.20;99.90
19522;DHT22;9905;52.126;5.596;2023-10-09T09:24:38;18.30;99.90
19522;DHT22;9905;52.126;5.596;2023-10-09T09:27:11;18.30;99.90
19522;DHT22;9905;52.126;5.596;2023-10-09T09:29:45;18.40;99.90
19522;DHT22;9905;52.126;5.596;2023-10-09T09:32:26;18.40;99.90
19522;DHT22;9905;52.126;5.596;2023-10-09T09:34:56;18.50;99.90
19522;DHT22;9905;52.126;5.596;2023-10-09T09:37:27;18.60;99.90
19522;DHT22;9905;52.126;5.596;2023-10-09T09:39:57;18.60;99.90
19522;DHT22;9905;52.126;5.596;2023-10-09T09:42:27;18.70;99.90
19522;DHT22;9905;52.126;5.596;2023-10-09T09:44:59;18.80;99.90
19522;DHT22;9905;52.126;5.596;2023-10-09T09:47:27;18.80;99.90
19522;DHT22;9905;52.126;5.596;2023-10-09T09:49:56;18.90;99.90
19522;DHT22;9905;52.126;5.596;2023-10-09T09:52:28;19.00;99.90
19522;DHT22;9905;52.126;5.596;2023-10-09T09:54:55;19.00;99.90
19522;DHT22;9905;52.126;5.596;2023-10-09T09:57:23;19.00;99.90
19522;DHT22;9905;52.126;5.596;2023-10-09T09:59:53;19.10;99.90
19522;DHT22;9905;52.126;5.596;2023-10-09T10:02:28;19.10;99.90
19522;DHT22;9905;52.126;5.596;2023-10-09T10:05:02;19.20;99.90
19522;DHT22;9905;52.126;5.596;2023-10-09T10:07:32;19.20;99.90
19522;DHT22;9905;52.126;5.596;2023-10-09T10:10:34;19.30;99.90
19522;DHT22;9905;52.126;5.596;2023-10-09T10:13:03;19.40;99.90
19522;DHT22;9905;52.126;5.596;2023-10-09T10:15:57;19.40;99.90
19522;DHT22;9905;52.126;5.596;2023-10-09T10:18:30;19.50;99.90
19522;DHT22;9905;52.126;5.596;2023-10-09T10:21:11;19.50;99.90
19522;DHT22;9905;52.126;5.596;2023-10-09T10:23:42;19.50;99.90
19522;DHT22;9905;52.126;5.596;2023-10-09T10:26:19;19.60;99.90
19522;DHT22;9905;52.126;5.596;2023-10-09T10:29:14;19.60;99.90
19522;DHT22;9905;52.126;5.596;2023-10-09T10:31:55;19.70;99.90
19522;DHT22;9905;52.126;5.596;2023-10-09T10:34:25;19.80;99.90
19522;DHT22;9905;52.126;5.596;2023-10-09T10:36:52;19.80;99.90
19522;DHT22;9905;52.126;5.596;2023-10-09T10:39:25;19.80;99.90
19522;DHT22;9905;52.126;5.596;2023-10-09T10:42:08;19.90;99.90
19522;DHT22;9905;52.126;5.596;2023-10-09T10:44:40;19.90;99.90
19522;DHT22;9905;52.126;5.596;2023-10-09T10:47:11;20.00;99.90
19522;DHT22;9905;52.126;5.596;2023-10-09T10:49:53;20.00;99.90
19522;DHT22;9905;52.126;5.596;2023-10-09T10:52:24;20.10;99.90
19522;DHT22;9905;52.126;5.596;2023-10-09T10:55:11;20.10;99.90
19522;DHT22;9905;52.126;5.596;2023-10-09T10:57:44;20.10;99.90
19522;DHT22;9905;52.126;5.596;2023-10-09T11:00:26;20.20;99.90
19522;DHT22;9905;52.126;5.596;2023-10-09T11:03:16;20.30;99.90
19522;DHT22;9905;52.126;5.596;2023-10-09T11:05:47;20.20;99.90
19522;DHT22;9905;52.126;5.596;2023-10-09T11:08:17;20.30;99.90
19522;DHT22;9905;52.126;5.596;2023-10-09T11:10:49;20.30;99.90
19522;DHT22;9905;52.126;5.596;2023-10-09T11:13:23;20.30;99.90
19522;DHT22;9905;52.126;5.596;2023-10-09T11:15:56;20.30;99.90
19522;DHT22;9905;52.126;5.596;2023-10-09T11:18:40;20.40;99.90
19522;DHT22;9905;52.126;5.596;2023-10-09T11:21:13;20.40;99.90
19522;DHT22;9905;52.126;5.596;2023-10-09T11:23:58;20.40;99.90
19522;DHT22;9905;52.126;5.596;2023-10-09T11:26:25;20.50;99.90
19522;DHT22;9905;52.126;5.596;2023-10-09T11:29:11;20.50;99.90
19522;DHT22;9905;52.126;5.596;2023-10-09T11:31:58;20.60;99.90
19522;DHT22;9905;52.126;5.596;2023-10-09T11:34:26;20.60;99.90
19522;DHT22;9905;52.126;5.596;2023-10-09T11:37:01;20.70;99.90
19522;DHT22;9905;52.126;5.596;2023-10-09T11:39:30;20.70;99.90
19522;DHT22;9905;52.126;5.596;2023-10-09T11:42:14;20.70;99.90
19522;DHT22;9905;52.126;5.596;2023-10-09T11:44:55;20.80;99.90
19522;DHT22;9905;52.126;5.596;2023-10-09T11:47:21;20.90;99.90
19522;DHT22;9905;52.126;5.596;2023-10-09T11:49:58;20.90;99.90
19522;DHT22;9905;52.126;5.596;2023-10-09T11:52:57;20.90;99.90
19522;DHT22;9905;52.126;5.596;2023-10-09T11:55:36;20.90;99.90
19522;DHT22;9905;52.126;5.596;2023-10-09T11:58:02;21.00;99.90
19522;DHT22;9905;52.126;5.596;2023-10-09T12:00:30;21.00;99.90
19522;DHT22;9905;52.126;5.596;2023-10-09T12:03:08;21.00;99.90
19522;DHT22;9905;52.126;5.596;2023-10-09T12:05:35;21.10;99.90
19522;DHT22;9905;52.126;5.596;2023-10-09T12:08:04;21.00;99.90
19522;DHT22;9905;52.126;5.596;2023-10-09T12:10:34;20.90;99.90
19522;DHT22;9905;52.126;5.596;2023-10-09T12:13:03;20.90;99.90
19522;DHT22;9905;52.126;5.596;2023-10-09T12:15:30;20.80;99.90
19522;DHT22;9905;52.126;5.596;2023-10-09T12:18:04;20.80;99.90
19522;DHT22;9905;52.126;5.596;2023-10-09T12:20:32;20.80;99.90
19522;DHT22;9905;52.126;5.596;2023-10-09T12:23:03;20.80;99.90
19522;DHT22;9905;52.126;5.596;2023-10-09T12:25:32;20.80;99.90
19522;DHT22;9905;52.126;5.596;2023-10-09T12:28:00;20.80;99.90
19522;DHT22;9905;52.126;5.596;2023-10-09T12:30:28;20.80;99.90
19522;DHT22;9905;52.126;5.596;2023-10-09T12:32:55;20.80;99.90
19522;DHT22;9905;52.126;5.596;2023-10-09T12:35:23;20.80;99.90
19522;DHT22;9905;52.126;5.596;2023-10-09T12:37:51;20.70;99.90
19522;DHT22;9905;52.126;5.596;2023-10-09T12:40:19;20.80;99.90
19522;DHT22;9905;52.126;5.596;2023-10-09T12:42:50;20.70;99.90
19522;DHT22;9905;52.126;5.596;2023-10-09T12:45:17;20.80;99.90
19522;DHT22;9905;52.126;5.596;2023-10-09T12:47:52;20.80;99.90
19522;DHT22;9905;52.126;5.596;2023-10-09T12:50:18;20.70;99.90
19522;DHT22;9905;52.126;5.596;2023-10-09T12:52:54;20.70;99.90
19522;DHT22;9905;52.126;5.596;2023-10-09T12:55:22;20.70;99.90
19522;DHT22;9905;52.126;5.596;2023-10-09T12:57:59;20.70;99.90
19522;DHT22;9905;52.126;5.596;2023-10-09T13:00:33;20.60;99.90
19522;DHT22;9905;52.126;5.596;2023-10-09T13:03:04;20.60;99.90
19522;DHT22;9905;52.126;5.596;2023-10-09T13:05:45;20.60;99.90
19522;DHT22;9905;52.126;5.596;2023-10-09T13:08:19;20.50;99.90
19522;DHT22;9905;52.126;5.596;2023-10-09T13:10:50;20.50;99.90
19522;DHT22;9905;52.126;5.596;2023-10-09T13:13:29;20.60;99.90
19522;DHT22;9905;52.126;5.596;2023-10-09T13:16:06;20.60;99.90
19522;DHT22;9905;52.126;5.596;2023-10-09T13:18:34;20.50;99.90
19522;DHT22;9905;52.126;5.596;2023-10-09T13:21:01;20.50;99.90
19522;DHT22;9905;52.126;5.596;2023-10-09T13:23:30;20.60;99.90
19522;DHT22;9905;52.126;5.596;2023-10-09T13:26:06;20.60;99.90
19522;DHT22;9905;52.126;5.596;2023-10-09T13:28:44;20.50;99.90
19522;DHT22;9905;52.126;5.596;2023-10-09T13:31:12;20.50;99.90
19522;DHT22;9905;52.126;5.596;2023-10-09T13:33:40;20.50;99.90
19522;DHT22;9905;52.126;5.596;2023-10-09T13:36:06;20.40;99.90
19522;DHT22;9905;52.126;5.596;2023-10-09T13:38:42;20.40;99.90
19522;DHT22;9905;52.126;5.596;2023-10-09T13:41:11;20.40;99.90
19522;DHT22;9905;52.126;5.596;2023-10-09T13:43:40;20.40;99.90
19522;DHT22;9905;52.126;5.596;2023-10-09T13:46:08;20.30;99.90
19522;DHT22;9905;52.126;5.596;2023-10-09T13:48:35;20.30;99.90
19522;DHT22;9905;52.126;5.596;2023-10-09T13:51:07;20.30;99.90
19522;DHT22;9905;52.126;5.596;2023-10-09T13:53:40;20.30;99.90
19522;DHT22;9905;52.126;5.596;2023-10-09T13:56:12;20.20;99.90
19522;DHT22;9905;52.126;5.596;2023-10-09T13:58:44;20.20;99.90
19522;DHT22;9905;52.126;5.596;2023-10-09T14:01:11;20.20;99.90
19522;DHT22;9905;52.126;5.596;2023-10-09T14:03:46;20.10;99.90
19522;DHT22;9905;52.126;5.596;2023-10-09T14:06:15;20.10;99.90
19522;DHT22;9905;52.126;5.596;2023-10-09T14:08:56;20.10;99.90
19522;DHT22;9905;52.126;5.596;2023-10-09T14:11:24;20.10;99.90
19522;DHT22;9905;52.126;5.596;2023-10-09T14:13:51;20.20;99.90
19522;DHT22;9905;52.126;5.596;2023-10-09T14:16:18;20.20;99.90
19522;DHT22;9905;52.126;5.596;2023-10-09T14:18:53;20.30;99.90
19522;DHT22;9905;52.126;5.596;2023-10-09T14:21:22;20.20;99.90
19522;DHT22;9905;52.126;5.596;2023-10-09T14:23:51;20.30;99.90
19522;DHT22;9905;52.126;5.596;2023-10-09T14:26:20;20.30;99.90
19522;DHT22;9905;52.126;5.596;2023-10-09T14:28:49;20.30;99.90
19522;DHT22;9905;52.126;5.596;2023-10-09T14:31:15;20.30;99.90
19522;DHT22;9905;52.126;5.596;2023-10-09T14:33:48;20.30;99.90
19522;DHT22;9905;52.126;5.596;2023-10-09T14:36:17;20.30;99.90
19522;DHT22;9905;52.126;5.596;2023-10-09T14:38:44;20.30;99.90
19522;DHT22;9905;52.126;5.596;2023-10-09T14:41:12;20.30;99.90
19522;DHT22;9905;52.126;5.596;2023-10-09T14:43:39;20.30;99.90
19522;DHT22;9905;52.126;5.596;2023-10-09T14:46:13;20.30;99.90
19522;DHT22;9905;52.126;5.596;2023-10-09T14:48:40;20.20;99.90
19522;DHT22;9905;52.126;5.596;2023-10-09T14:51:11;20.20;99.90
19522;DHT22;9905;52.126;5.596;2023-10-09T14:53:39;20.20;99.90
19522;DHT22;9905;52.126;5.596;2023-10-09T14:56:06;20.10;99.90
19522;DHT22;9905;52.126;5.596;2023-10-09T14:58:34;20.10;99.90
19522;DHT22;9905;52.126;5.596;2023-10-09T15:01:09;20.20;99.90
19522;DHT22;9905;52.126;5.596;2023-10-09T15:03:38;20.20;99.90
19522;DHT22;9905;52.126;5.596;2023-10-09T15:06:05;20.20;99.90
19522;DHT22;9905;52.126;5.596;2023-10-09T15:08:36;20.20;99.90
19522;DHT22;9905;52.126;5.596;2023-10-09T15:11:03;20.20;99.90
19522;DHT22;9905;52.126;5.596;2023-10-09T15:13:31;20.20;99.90
19522;DHT22;9905;52.126;5.596;2023-10-09T15:15:58;20.20;99.90
19522;DHT22;9905;52.126;5.596;2023-10-09T15:18:29;20.20;99.90
19522;DHT22;9905;52.126;5.596;2023-10-09T15:20:58;20.20;99.90
19522;DHT22;9905;52.126;5.596;2023-10-09T15:23:26;20.20;99.90
19522;DHT22;9905;52.126;5.596;2023-10-09T15:25:52;20.20;99.90
19522;DHT22;9905;52.126;5.596;2023-10-09T15:28:22;20.20;99.90
19522;DHT22;9905;52.126;5.596;2023-10-09T15:30:50;20.10;99.90
19522;DHT22;9905;52.126;5.596;2023-10-09T15:33:18;20.00;99.90
19522;DHT22;9905;52.126;5.596;2023-10-09T15:35:47;20.00;99.90
19522;DHT22;9905;52.126;5.596;2023-10-09T15:38:15;19.90;99.90
19522;DHT22;9905;52.126;5.596;2023-10-09T15:40:42;19.90;99.90
19522;DHT22;9905;52.126;5.596;2023-10-09T15:43:10;19.90;99.90
19522;DHT22;9905;52.126;5.596;2023-10-09T15:45:43;19.90;99.90
19522;DHT22;9905;52.126;5.596;2023-10-09T15:48:13;19.90;99.90
19522;DHT22;9905;52.126;5.596;2023-10-09T15:50:44;19.90;99.90
19522;DHT22;9905;52.126;5.596;2023-10-09T15:53:15;19.90;99.90
19522;DHT22;9905;52.126;5.596;2023-10-09T15:55:43;19.80;99.90
19522;DHT22;9905;52.126;5.596;2023-10-09T15:58:10;19.70;99.90
19522;DHT22;9905;52.126;5.596;2023-10-09T16:00:37;19.70;99.90
19522;DHT22;9905;52.126;5.596;2023-10-09T16:03:05;19.70;99.90
19522;DHT22;9905;52.126;5.596;2023-10-09T16:05:35;19.70;99.90
19522;DHT22;9905;52.126;5.596;2023-10-09T16:08:02;19.70;99.90
19522;DHT22;9905;52.126;5.596;2023-10-09T16:10:32;19.70;99.90
19522;DHT22;9905;52.126;5.596;2023-10-09T16:13:00;19.70;99.90
19522;DHT22;9905;52.126;5.596;2023-10-09T16:15:27;19.70;99.90
19522;DHT22;9905;52.126;5.596;2023-10-09T16:17:54;19.60;99.90
19522;DHT22;9905;52.126;5.596;2023-10-09T16:20:28;19.50;99.90
19522;DHT22;9905;52.126;5.596;2023-10-09T16:22:57;19.60;99.90